createdAt,value
2019-02-11T00:02:18.622Z,7.60
2019-02-11T00:04:48.965Z,7.60
2019-02-11T00:07:19.584Z,7.70
2019-02-11T00:09:50.102Z,7.60
2019-02-11T00:12:20.931Z,7.60
2019-02-11T00:14:51.554Z,7.70
2019-02-11T00:17:21.916Z,7.70
2019-02-11T00:19:52.581Z,7.70
2019-02-11T00:22:23.181Z,7.50
2019-02-11T00:24:53.541Z,7.20
2019-02-11T00:27:23.879Z,6.90
2019-02-11T00:29:54.239Z,6.80
2019-02-11T00:32:25.108Z,6.70
2019-02-11T00:34:55.767Z,6.50
2019-02-11T00:37:26.365Z,6.40
2019-02-11T00:39:57.030Z,6.40
2019-02-11T00:42:27.617Z,6.30
2019-02-11T00:44:57.976Z,6.30
2019-02-11T00:47:28.626Z,6.20
2019-02-11T00:49:59.198Z,6.20
2019-02-11T00:52:29.584Z,6.20
2019-02-11T00:54:59.886Z,6.20
2019-02-11T00:57:30.800Z,6.20
2019-02-11T01:00:01.138Z,6.10
2019-02-11T01:02:32.031Z,6.10
2019-02-11T01:05:02.422Z,6.10
2019-02-11T01:07:33.050Z,6.10
2019-02-11T01:10:03.627Z,6.00
2019-02-11T01:12:34.487Z,5.90
2019-02-11T01:15:08.642Z,5.90
2019-02-11T01:17:38.967Z,5.80
2019-02-11T01:20:11.897Z,5.80
2019-02-11T01:22:42.601Z,5.70
2019-02-11T01:25:12.920Z,5.50
2019-02-11T01:27:43.541Z,5.60
2019-02-11T01:30:14.143Z,5.50
2019-02-11T01:32:44.461Z,5.40
2019-02-11T01:35:15.348Z,5.40
2019-02-11T01:37:45.946Z,5.30
2019-02-11T01:40:16.282Z,5.20
2019-02-11T01:42:46.658Z,5.20
2019-02-11T01:45:17.213Z,5.10
2019-02-11T01:47:48.082Z,5.00
2019-02-11T01:50:18.445Z,5.00
2019-02-11T01:52:49.045Z,4.90
2019-02-11T01:55:19.435Z,4.90
2019-02-11T01:57:50.095Z,4.80
2019-02-11T02:00:20.966Z,4.50
2019-02-11T02:02:51.328Z,4.40
2019-02-11T02:05:21.669Z,4.30
2019-02-11T02:07:51.993Z,4.20
2019-02-11T02:10:22.352Z,4.10
2019-02-11T02:12:53.014Z,4.00
2019-02-11T02:15:23.325Z,3.90
2019-02-11T02:17:53.667Z,3.90
2019-02-11T02:20:24.029Z,3.90
2019-02-11T02:22:54.377Z,3.90
2019-02-11T02:25:24.683Z,3.80
2019-02-11T02:27:55.313Z,3.80
2019-02-11T02:30:25.721Z,3.80
2019-02-11T02:32:56.337Z,3.80
2019-02-11T02:35:26.644Z,3.80
2019-02-11T02:37:57.307Z,3.60
2019-02-11T02:40:27.974Z,3.60
2019-02-11T02:42:58.337Z,3.70
2019-02-11T02:45:28.662Z,3.60
2019-02-11T02:47:59.259Z,3.50
2019-02-11T02:50:29.616Z,3.50
2019-02-11T02:53:00.198Z,3.40
2019-02-11T02:55:30.831Z,3.30
2019-02-11T02:58:01.142Z,3.30
2019-02-11T03:00:31.793Z,3.20
2019-02-11T03:03:02.135Z,3.10
2019-02-11T03:05:32.713Z,3.10
2019-02-11T03:08:03.324Z,3.00
2019-02-11T03:10:34.523Z,3.00
2019-02-11T03:13:05.289Z,2.90
2019-02-11T03:15:35.869Z,2.90
2019-02-11T03:18:06.499Z,2.80
2019-02-11T03:20:37.105Z,2.80
2019-02-11T03:23:07.447Z,2.90
2019-02-11T03:25:37.823Z,2.90
2019-02-11T03:28:08.426Z,2.90
2019-02-11T03:30:39.046Z,2.90
2019-02-11T03:33:09.682Z,2.90
2019-02-11T03:35:39.990Z,2.90
2019-02-11T03:38:10.576Z,2.90
2019-02-11T03:40:40.927Z,2.90
2019-02-11T03:43:11.582Z,2.80
2019-02-11T03:45:42.099Z,2.80
2019-02-11T03:48:12.408Z,2.80
2019-02-11T03:50:43.022Z,2.80
2019-02-11T03:53:13.367Z,2.90
2019-02-11T03:55:43.733Z,2.80
2019-02-11T03:58:14.385Z,2.80
2019-02-11T04:00:44.754Z,2.90
2019-02-11T04:03:15.390Z,2.90
2019-02-11T04:05:45.724Z,3.10
2019-02-11T04:08:16.432Z,3.10
2019-02-11T04:10:47.055Z,3.20
2019-02-11T04:13:17.592Z,3.30
2019-02-11T04:15:48.191Z,3.40
2019-02-11T04:18:18.919Z,3.50
2019-02-11T04:20:49.294Z,3.60
2019-02-11T04:23:19.908Z,3.60
2019-02-11T04:25:50.545Z,3.70
2019-02-11T04:28:21.165Z,3.80
2019-02-11T04:30:51.765Z,3.90
2019-02-11T04:33:22.136Z,3.90
2019-02-11T04:35:52.449Z,4.00
2019-02-11T04:38:23.067Z,4.10
2019-02-11T04:40:53.415Z,4.20
2019-02-11T04:43:23.783Z,4.30
2019-02-11T04:45:54.157Z,4.30
2019-02-11T04:48:24.477Z,4.40
2019-02-11T04:50:55.282Z,4.40
2019-02-11T04:53:25.861Z,4.50
2019-02-11T04:55:56.508Z,4.60
2019-02-11T04:58:27.170Z,4.60
2019-02-11T05:00:57.496Z,4.70
2019-02-11T05:03:27.808Z,4.70
2019-02-11T05:05:58.432Z,4.70
2019-02-11T05:08:29.368Z,4.70
2019-02-11T05:11:00.029Z,4.80
2019-02-11T05:13:30.342Z,4.80
2019-02-11T05:16:00.974Z,4.70
2019-02-11T05:18:31.353Z,4.80
2019-02-11T05:21:01.765Z,4.80
2019-02-11T05:23:32.372Z,4.90
2019-02-11T05:26:02.966Z,4.90
2019-02-11T05:28:33.908Z,4.90
2019-02-11T05:31:04.251Z,4.90
2019-02-11T05:33:34.591Z,4.90
2019-02-11T05:36:04.999Z,5.00
2019-02-11T05:38:35.577Z,5.00
2019-02-11T05:41:06.648Z,5.00
2019-02-11T05:43:37.230Z,5.00
2019-02-11T05:46:07.867Z,5.00
2019-02-11T05:48:38.210Z,5.00
2019-02-11T05:51:09.156Z,5.00
2019-02-11T05:53:39.812Z,5.00
2019-02-11T05:56:10.396Z,5.10
2019-02-11T05:58:41.009Z,5.10
2019-02-11T06:01:11.347Z,5.20
2019-02-11T06:03:42.386Z,5.20
2019-02-11T06:06:12.796Z,5.20
2019-02-11T06:08:43.191Z,5.20
2019-02-11T06:11:13.532Z,5.20
2019-02-11T06:13:43.876Z,5.20
2019-02-11T06:16:14.379Z,5.20
2019-02-11T06:18:45.003Z,5.20
2019-02-11T06:21:15.647Z,5.30
2019-02-11T06:23:45.979Z,5.30
2019-02-11T06:26:16.396Z,5.30
2019-02-11T06:28:46.739Z,5.20
2019-02-11T06:31:17.154Z,5.20
2019-02-11T06:33:47.728Z,5.30
2019-02-11T06:36:18.357Z,5.30
2019-02-11T06:38:48.747Z,5.40
2019-02-11T06:41:19.748Z,5.40
2019-02-11T06:43:50.339Z,5.40
2019-02-11T06:46:21.051Z,5.40
2019-02-11T06:48:51.662Z,5.40
2019-02-11T06:51:22.928Z,5.40
2019-02-11T06:53:53.645Z,5.50
2019-02-11T06:56:24.275Z,5.40
2019-02-11T06:58:54.885Z,5.50
2019-02-11T07:01:25.221Z,5.50
2019-02-11T07:03:55.653Z,5.50
2019-02-11T07:06:26.703Z,5.60
2019-02-11T07:08:57.114Z,5.60
2019-02-11T07:11:28.135Z,5.50
2019-02-11T07:13:58.502Z,5.50
2019-02-11T07:16:29.078Z,5.60
2019-02-11T07:19:00.356Z,5.60
2019-02-11T07:21:30.833Z,5.60
2019-02-11T07:24:02.628Z,5.60
2019-02-11T07:26:33.025Z,5.60
2019-02-11T07:29:03.658Z,5.60
2019-02-11T07:31:33.991Z,5.60
2019-02-11T07:34:04.357Z,5.60
2019-02-11T07:36:34.695Z,5.60
2019-02-11T07:39:08.072Z,5.60
2019-02-11T07:41:45.841Z,5.70
2019-02-11T07:44:18.351Z,5.70
2019-02-11T07:46:48.955Z,5.80
2019-02-11T07:49:19.460Z,5.80
2019-02-11T07:51:50.190Z,5.80
2019-02-11T07:54:20.556Z,5.80
2019-02-11T07:56:51.447Z,5.80
2019-02-11T07:59:21.834Z,5.80
2019-02-11T08:01:52.432Z,5.70
2019-02-11T08:04:26.263Z,5.70
2019-02-11T08:06:55.039Z,5.70
2019-02-11T08:09:25.367Z,5.70
2019-02-11T08:11:55.998Z,5.70
2019-02-11T08:14:26.659Z,5.80
2019-02-11T08:16:56.997Z,5.80
2019-02-11T08:19:27.332Z,5.80
2019-02-11T08:21:58.628Z,5.90
2019-02-11T08:24:29.218Z,6.00
2019-02-11T08:26:59.841Z,6.00
2019-02-11T08:29:30.204Z,6.10
2019-02-11T08:32:00.607Z,6.20
2019-02-11T08:34:31.215Z,6.20
2019-02-11T08:37:01.844Z,6.30
2019-02-11T08:39:32.407Z,6.30
2019-02-11T08:42:03.110Z,6.40
2019-02-11T08:44:33.915Z,6.40
2019-02-11T08:47:04.514Z,6.50
2019-02-11T08:49:35.138Z,6.60
2019-02-11T08:52:05.482Z,6.60
2019-02-11T08:54:35.827Z,6.60
2019-02-11T08:57:06.541Z,6.50
2019-02-11T08:59:37.106Z,6.50
2019-02-11T09:02:07.428Z,6.50
2019-02-11T09:04:37.773Z,6.50
2019-02-11T09:07:08.181Z,6.50
2019-02-11T09:09:38.539Z,6.50
2019-02-11T09:12:09.147Z,6.50
2019-02-11T09:14:39.536Z,6.40
2019-02-11T09:17:10.626Z,6.30
2019-02-11T09:19:41.298Z,6.40
2019-02-11T09:22:11.632Z,6.30
2019-02-11T09:24:42.262Z,6.30
2019-02-11T09:27:12.869Z,6.30
2019-02-11T09:29:43.181Z,6.30
2019-02-11T09:32:13.732Z,6.40
2019-02-11T09:34:44.076Z,6.50
2019-02-11T09:37:14.580Z,6.50
2019-02-11T09:39:44.895Z,6.50
2019-02-11T09:42:15.260Z,6.50
2019-02-11T09:44:46.101Z,6.60
2019-02-11T09:47:16.476Z,6.50
2019-02-11T09:49:54.322Z,6.60
2019-02-11T09:52:24.984Z,6.60
2019-02-11T09:54:55.292Z,6.60
2019-02-11T09:57:26.773Z,6.70
2019-02-11T09:59:57.170Z,6.70
2019-02-11T10:02:27.512Z,6.70
2019-02-11T10:04:58.503Z,6.70
2019-02-11T10:07:29.119Z,6.80
2019-02-11T10:09:59.461Z,6.80
2019-02-11T10:12:30.473Z,6.90
2019-02-11T10:15:00.841Z,6.90
2019-02-11T10:17:31.172Z,6.90
2019-02-11T10:20:01.539Z,7.00
2019-02-11T10:22:31.884Z,6.90
2019-02-11T10:25:02.221Z,6.90
2019-02-11T10:27:32.597Z,6.90
2019-02-11T10:30:03.322Z,6.80
2019-02-11T10:32:34.301Z,6.90
2019-02-11T10:35:06.130Z,6.90
2019-02-11T10:37:36.463Z,6.90
2019-02-11T10:40:11.200Z,6.90
2019-02-11T10:42:41.941Z,7.00
2019-02-11T10:45:14.657Z,7.00
2019-02-11T10:47:49.323Z,7.00
2019-02-11T10:50:20.074Z,7.00
2019-02-11T10:52:50.716Z,7.00
2019-02-11T10:55:21.941Z,7.10
2019-02-11T10:57:52.236Z,7.10
2019-02-11T11:00:25.363Z,7.10
2019-02-11T11:02:55.984Z,7.20
2019-02-11T11:05:26.378Z,7.30
2019-02-11T11:07:56.711Z,7.40
2019-02-11T11:10:39.201Z,7.50
2019-02-11T11:13:09.538Z,7.50
2019-02-11T11:15:40.407Z,7.40
2019-02-11T11:18:11.008Z,7.40
2019-02-11T11:20:41.703Z,7.50
2019-02-11T11:23:12.276Z,7.50
2019-02-11T11:25:42.917Z,7.50
2019-02-11T11:28:13.291Z,7.50
2019-02-11T11:30:43.901Z,7.40
2019-02-11T11:33:14.538Z,7.50
2019-02-11T11:35:44.910Z,7.50
2019-02-11T11:38:15.497Z,7.40
2019-02-11T11:40:46.164Z,7.40
2019-02-11T11:43:16.485Z,7.40
2019-02-11T11:45:47.389Z,7.40
2019-02-11T11:48:17.998Z,7.40
2019-02-11T11:50:48.698Z,7.50
2019-02-11T11:53:19.363Z,7.50
2019-02-11T11:55:50.082Z,7.50
2019-02-11T11:58:20.423Z,7.50
2019-02-11T12:00:50.743Z,7.50
2019-02-11T12:03:21.381Z,7.50
2019-02-11T12:05:52.223Z,7.40
2019-02-11T12:08:22.820Z,7.30
2019-02-11T12:10:53.209Z,7.40
2019-02-11T12:13:23.957Z,7.40
2019-02-11T12:15:54.361Z,7.50
2019-02-11T12:18:24.741Z,7.50
2019-02-11T12:20:55.061Z,7.50
2019-02-11T12:23:25.411Z,7.50
2019-02-11T12:25:55.781Z,7.50
2019-02-11T12:28:26.403Z,7.40
2019-02-11T12:30:57.001Z,7.40
2019-02-11T12:33:27.382Z,7.40
2019-02-11T12:35:57.763Z,7.30
2019-02-11T12:38:28.340Z,7.40
2019-02-11T12:40:58.781Z,7.50
2019-02-11T12:43:29.160Z,7.50
2019-02-11T12:45:59.536Z,7.50
2019-02-11T12:48:29.868Z,7.40
2019-02-11T12:51:00.260Z,7.30
2019-02-11T12:53:30.570Z,7.40
2019-02-11T12:56:02.676Z,7.20
2019-02-11T12:58:32.980Z,7.20
2019-02-11T13:01:03.507Z,7.20
2019-02-11T13:03:33.891Z,7.30
2019-02-11T13:06:04.294Z,7.40
2019-02-11T13:08:35.965Z,7.60
2019-02-11T13:11:06.525Z,7.60
2019-02-11T13:13:36.908Z,7.60
2019-02-11T13:16:07.629Z,7.70
2019-02-11T13:18:39.286Z,7.70
2019-02-11T13:21:10.025Z,7.70
2019-02-11T13:23:40.759Z,7.70
2019-02-11T13:26:11.774Z,7.70
2019-02-11T13:28:42.103Z,7.70
2019-02-11T13:31:12.496Z,7.70
2019-02-11T13:33:43.182Z,7.80
2019-02-11T13:36:13.827Z,7.80
2019-02-11T13:38:44.181Z,7.90
2019-02-11T13:41:14.779Z,7.90
2019-02-11T13:43:50.410Z,7.90
2019-02-11T13:46:21.014Z,8.00
2019-02-11T13:48:51.350Z,7.90
2019-02-11T13:51:23.331Z,7.90
2019-02-11T13:53:53.653Z,7.90
2019-02-11T13:56:24.235Z,7.90
2019-02-11T13:58:54.913Z,7.90
2019-02-11T14:01:25.665Z,7.80
2019-02-11T14:03:56.064Z,7.90
2019-02-11T14:06:26.399Z,7.90
2019-02-11T14:08:56.716Z,7.90
2019-02-11T14:11:27.053Z,8.10
2019-02-11T14:14:02.360Z,8.30
2019-02-11T14:16:29.813Z,8.30
2019-02-11T14:19:00.147Z,8.30
2019-02-11T14:21:30.858Z,8.20
2019-02-11T14:24:01.234Z,8.10
2019-02-11T14:26:31.607Z,7.90
2019-02-11T14:29:02.247Z,7.90
2019-02-11T14:31:32.659Z,7.80
2019-02-11T14:34:02.989Z,7.70
2019-02-11T14:36:33.365Z,7.70
2019-02-11T14:39:04.843Z,7.60
2019-02-11T14:41:35.459Z,7.60
2019-02-11T14:44:05.820Z,7.50
2019-02-11T14:46:36.143Z,7.50
2019-02-11T14:49:06.638Z,7.50
2019-02-11T14:51:37.563Z,7.50
2019-02-11T14:54:08.174Z,7.50
2019-02-11T14:56:38.488Z,7.50
2019-02-11T14:59:08.889Z,7.40
2019-02-11T15:01:39.204Z,7.40
2019-02-11T15:04:09.813Z,7.20
2019-02-11T15:06:40.428Z,7.10
2019-02-11T15:09:10.765Z,7.10
2019-02-11T15:11:41.708Z,7.00
2019-02-11T15:14:12.632Z,7.00
2019-02-11T15:16:42.978Z,7.00
2019-02-11T15:19:13.385Z,7.00
2019-02-11T15:21:44.012Z,6.90
2019-02-11T15:24:14.353Z,7.00
2019-02-11T15:26:45.221Z,6.90
2019-02-11T15:29:15.616Z,6.90
2019-02-11T15:31:46.326Z,6.90
2019-02-11T15:34:16.644Z,6.80
2019-02-11T15:36:47.259Z,6.80
2019-02-11T15:39:17.601Z,6.80
2019-02-11T15:41:48.010Z,6.80
2019-02-11T15:44:18.665Z,6.70
2019-02-11T15:46:48.980Z,6.70
2019-02-11T15:49:19.327Z,6.70
2019-02-11T15:51:49.749Z,6.70
2019-02-11T15:54:20.708Z,6.60
2019-02-11T15:56:51.023Z,6.60
2019-02-11T15:59:21.668Z,6.60
2019-02-11T16:01:52.004Z,6.50
2019-02-11T16:04:22.346Z,6.50
2019-02-11T16:06:53.004Z,6.40
2019-02-11T16:09:23.948Z,6.50
2019-02-11T16:11:54.500Z,6.40
2019-02-11T16:14:24.985Z,6.40
2019-02-11T16:16:55.581Z,6.30
2019-02-11T16:19:26.462Z,6.30
2019-02-11T16:21:56.839Z,6.30
2019-02-11T16:24:27.546Z,6.20
2019-02-11T16:26:58.431Z,6.20
2019-02-11T16:29:28.883Z,6.10
2019-02-11T16:32:01.017Z,6.10
2019-02-11T16:34:31.386Z,6.00
2019-02-11T16:37:02.153Z,6.00
2019-02-11T16:39:32.470Z,5.90
2019-02-11T16:42:03.055Z,5.90
2019-02-11T16:44:33.447Z,5.80
2019-02-11T16:47:04.733Z,5.80
2019-02-11T16:49:35.301Z,5.80
2019-02-11T16:52:05.958Z,5.70
2019-02-11T16:54:36.772Z,5.70
2019-02-11T16:57:07.111Z,5.60
2019-02-11T16:59:37.838Z,5.60
2019-02-11T17:02:08.184Z,5.60
2019-02-11T17:04:38.504Z,5.50
2019-02-11T17:07:08.951Z,5.40
2019-02-11T17:09:39.403Z,5.40
2019-02-11T17:12:09.746Z,5.30
2019-02-11T17:14:40.153Z,5.30
2019-02-11T17:17:10.759Z,5.40
2019-02-11T17:19:41.109Z,5.30
2019-02-11T17:22:11.483Z,5.30
2019-02-11T17:24:42.950Z,5.30
2019-02-11T17:27:13.294Z,5.40
2019-02-11T17:29:43.963Z,5.30
2019-02-11T17:32:14.276Z,5.30
2019-02-11T17:34:44.594Z,5.30
2019-02-11T17:37:14.939Z,5.30
2019-02-11T17:39:45.813Z,5.30
2019-02-11T17:42:16.147Z,5.30
2019-02-11T17:44:46.650Z,5.20
2019-02-11T17:47:16.961Z,5.30
2019-02-11T17:49:47.600Z,5.30
2019-02-11T17:52:18.286Z,5.30
2019-02-11T17:54:48.877Z,5.30
2019-02-11T17:57:19.483Z,5.30
2019-02-11T17:59:50.121Z,5.30
2019-02-11T18:02:20.727Z,5.20
2019-02-11T18:04:51.068Z,5.20
2019-02-11T18:07:21.940Z,5.20
2019-02-11T18:09:52.522Z,5.10
2019-02-11T18:12:23.252Z,5.10
2019-02-11T18:14:54.245Z,5.10
2019-02-11T18:17:24.548Z,5.10
2019-02-11T18:19:55.163Z,5.00
2019-02-11T18:22:25.530Z,5.10
2019-02-11T18:24:55.836Z,5.00
2019-02-11T18:27:26.417Z,5.10
2019-02-11T18:29:56.778Z,5.00
2019-02-11T18:32:27.636Z,5.00
2019-02-11T18:34:57.953Z,5.00
2019-02-11T18:37:28.457Z,5.00
2019-02-11T18:39:59.048Z,5.00
2019-02-11T18:42:29.630Z,5.00
2019-02-11T18:45:00.398Z,5.00
2019-02-11T18:47:30.741Z,5.00
2019-02-11T18:50:01.356Z,5.00
2019-02-11T18:52:31.731Z,5.00
2019-02-11T18:55:02.044Z,4.90
2019-02-11T18:57:32.670Z,5.00
2019-02-11T19:00:03.120Z,5.00
2019-02-11T19:02:33.803Z,4.90
2019-02-11T19:05:04.815Z,4.80
2019-02-11T19:07:35.186Z,4.90
2019-02-11T19:10:10.202Z,4.90
2019-02-11T19:12:40.820Z,4.90
2019-02-11T19:15:14.640Z,4.90
2019-02-11T19:17:45.243Z,4.80
2019-02-11T19:20:19.966Z,4.80
2019-02-11T19:22:50.336Z,4.80
2019-02-11T19:25:20.650Z,4.80
2019-02-11T19:27:51.257Z,4.80
2019-02-11T19:30:27.286Z,4.80
2019-02-11T19:32:58.157Z,4.80
2019-02-11T19:35:28.739Z,4.70
2019-02-11T19:37:59.378Z,4.70
2019-02-11T19:40:30.035Z,4.60
2019-02-11T19:43:00.650Z,4.60
2019-02-11T19:45:30.996Z,4.50
2019-02-11T19:48:01.582Z,4.60
2019-02-11T19:50:32.165Z,4.60
2019-02-11T19:53:02.541Z,4.50
2019-02-11T19:55:32.903Z,4.50
2019-02-11T19:58:03.251Z,4.50
2019-02-11T20:00:33.869Z,4.50
2019-02-11T20:03:04.451Z,4.50
2019-02-11T20:05:35.059Z,4.50
2019-02-11T20:08:05.679Z,4.40
2019-02-11T20:10:36.022Z,4.50
2019-02-11T20:13:06.331Z,4.40
2019-02-11T20:15:36.971Z,4.40
2019-02-11T20:18:07.376Z,4.30
2019-02-11T20:20:37.990Z,4.30
2019-02-11T20:23:08.333Z,4.40
2019-02-11T20:25:38.906Z,4.40
2019-02-11T20:28:09.624Z,4.40
2019-02-11T20:30:39.941Z,4.40
2019-02-11T20:33:10.257Z,4.30
2019-02-11T20:35:40.980Z,4.30
2019-02-11T20:38:11.831Z,4.30
2019-02-11T20:40:42.171Z,4.20
2019-02-11T20:43:12.523Z,4.20
2019-02-11T20:45:42.837Z,4.20
2019-02-11T20:48:13.179Z,4.20
2019-02-11T20:50:43.630Z,4.20
2019-02-11T20:53:14.215Z,4.10
2019-02-11T20:55:44.849Z,4.10
2019-02-11T20:58:15.475Z,4.10
2019-02-11T21:00:46.063Z,4.10
2019-02-11T21:03:16.702Z,4.10
2019-02-11T21:05:47.317Z,4.00
2019-02-11T21:08:17.934Z,4.00
2019-02-11T21:10:48.562Z,3.90
2019-02-11T21:13:19.238Z,4.00
2019-02-11T21:15:50.177Z,3.90
2019-02-11T21:18:20.942Z,3.80
2019-02-11T21:20:51.878Z,3.80
2019-02-11T21:23:22.739Z,3.80
2019-02-11T21:25:53.717Z,3.80
2019-02-11T21:28:24.695Z,3.80
2019-02-11T21:30:56.260Z,3.80
2019-02-11T21:33:26.904Z,3.80
2019-02-11T21:35:57.352Z,3.80
2019-02-11T21:38:27.913Z,3.70
2019-02-11T21:40:58.265Z,3.70
2019-02-11T21:43:28.653Z,3.70
2019-02-11T21:45:58.977Z,3.60
2019-02-11T21:48:29.299Z,3.60
2019-02-11T21:50:59.688Z,3.50
2019-02-11T21:53:30.532Z,3.50
2019-02-11T21:56:01.309Z,3.50
2019-02-11T21:58:31.983Z,3.50
2019-02-11T22:01:02.813Z,3.50
2019-02-11T22:03:33.412Z,3.50
2019-02-11T22:06:03.868Z,3.50
2019-02-11T22:08:34.186Z,3.40
2019-02-11T22:11:04.902Z,3.40
2019-02-11T22:13:35.585Z,3.30
2019-02-11T22:16:05.930Z,3.30
2019-02-11T22:18:36.252Z,3.30
2019-02-11T22:21:06.982Z,3.20
2019-02-11T22:23:37.589Z,3.30
2019-02-11T22:26:07.945Z,3.20
2019-02-11T22:28:38.566Z,3.20
2019-02-11T22:31:09.184Z,3.20
2019-02-11T22:33:39.798Z,3.20
2019-02-11T22:36:10.159Z,3.20
2019-02-11T22:38:40.501Z,3.10
2019-02-11T22:41:11.345Z,3.10
2019-02-11T22:43:42.268Z,3.10
2019-02-11T22:46:12.887Z,3.10
2019-02-11T22:48:43.237Z,3.20
2019-02-11T22:51:14.118Z,3.20
2019-02-11T22:53:44.437Z,3.20
2019-02-11T22:56:15.052Z,3.30
2019-02-11T22:58:45.725Z,3.40
2019-02-11T23:01:16.079Z,3.40
2019-02-11T23:03:46.715Z,3.40
2019-02-11T23:06:17.389Z,3.50
2019-02-11T23:08:47.730Z,3.60
2019-02-11T23:11:18.329Z,3.50
2019-02-11T23:13:48.707Z,3.60
2019-02-11T23:16:19.052Z,3.60
2019-02-11T23:18:49.638Z,3.60
2019-02-11T23:21:20.367Z,3.70
2019-02-11T23:23:50.800Z,3.70
2019-02-11T23:26:21.387Z,3.70
2019-02-11T23:28:52.229Z,3.70
2019-02-11T23:31:22.816Z,3.70
2019-02-11T23:33:53.434Z,3.70
2019-02-11T23:36:23.903Z,3.60
2019-02-11T23:38:54.515Z,3.60
2019-02-11T23:41:25.111Z,3.60
2019-02-11T23:43:56.051Z,3.70
2019-02-11T23:46:26.392Z,3.60
2019-02-11T23:48:56.713Z,3.70
2019-02-11T23:51:27.097Z,3.70
2019-02-11T23:53:57.454Z,3.70
2019-02-11T23:56:28.068Z,3.70
2019-02-11T23:58:58.458Z,3.70
